sensor_id;sensor_type;location;lat;lon;timestamp;pressure;altitude;pressure_sealevel;temperature;humidity
77450;BME280;66536;53.150;18.172;2023-12-29T00:01:47;100753.98;;;5.49;86.64
77450;BME280;66536;53.150;18.172;2023-12-29T00:04:13;100747.95;;;5.46;86.75
77450;BME280;66536;53.150;18.172;2023-12-29T00:06:39;100753.65;;;5.44;86.73
77450;BME280;66536;53.150;18.172;2023-12-29T00:09:06;100754.73;;;5.41;86.71
77450;BME280;66536;53.150;18.172;2023-12-29T00:11:33;100752.52;;;5.36;86.72
77450;BME280;66536;53.150;18.172;2023-12-29T00:13:59;100748.31;;;5.32;86.93
77450;BME280;66536;53.150;18.172;2023-12-29T00:16:27;100739.91;;;5.28;86.89
77450;BME280;66536;53.150;18.172;2023-12-29T00:18:54;100733.95;;;5.23;87.15
77450;BME280;66536;53.150;18.172;2023-12-29T00:21:20;100734.05;;;5.19;87.09
77450;BME280;66536;53.150;18.172;2023-12-29T00:23:47;100729.92;;;5.15;87.25
77450;BME280;66536;53.150;18.172;2023-12-29T00:26:17;100729.77;;;5.13;87.20
77450;BME280;66536;53.150;18.172;2023-12-29T00:28:47;100722.98;;;5.11;87.50
77450;BME280;66536;53.150;18.172;2023-12-29T00:31:14;100718.14;;;5.10;87.39
77450;BME280;66536;53.150;18.172;2023-12-29T00:33:43;100715.11;;;5.08;87.50
77450;BME280;66536;53.150;18.172;2023-12-29T00:36:17;100718.03;;;5.06;87.55
77450;BME280;66536;53.150;18.172;2023-12-29T00:38:44;100714.45;;;5.04;87.63
77450;BME280;66536;53.150;18.172;2023-12-29T00:41:11;100714.76;;;5.03;87.60
77450;BME280;66536;53.150;18.172;2023-12-29T00:43:38;100712.13;;;5.02;87.67
77450;BME280;66536;53.150;18.172;2023-12-29T00:46:05;100710.17;;;5.03;87.73
77450;BME280;66536;53.150;18.172;2023-12-29T00:48:32;100708.27;;;5.03;87.74
77450;BME280;66536;53.150;18.172;2023-12-29T00:51:00;100704.59;;;5.03;87.65
77450;BME280;66536;53.150;18.172;2023-12-29T00:53:30;100699.83;;;5.01;87.67
77450;BME280;66536;53.150;18.172;2023-12-29T00:56:01;100700.64;;;4.98;87.61
77450;BME280;66536;53.150;18.172;2023-12-29T00:58:28;100703.45;;;4.94;87.65
77450;BME280;66536;53.150;18.172;2023-12-29T01:00:57;100699.48;;;4.90;87.77
77450;BME280;66536;53.150;18.172;2023-12-29T01:03:23;100700.52;;;4.87;88.06
77450;BME280;66536;53.150;18.172;2023-12-29T01:05:49;100693.63;;;4.83;87.97
77450;BME280;66536;53.150;18.172;2023-12-29T01:08:15;100687.94;;;4.79;88.16
77450;BME280;66536;53.150;18.172;2023-12-29T01:10:41;100687.23;;;4.76;88.20
77450;BME280;66536;53.150;18.172;2023-12-29T01:13:07;100692.99;;;4.73;88.19
77450;BME280;66536;53.150;18.172;2023-12-29T01:15:34;100691.73;;;4.71;88.11
77450;BME280;66536;53.150;18.172;2023-12-29T01:18:01;100690.52;;;4.69;88.45
77450;BME280;66536;53.150;18.172;2023-12-29T01:20:27;100685.52;;;4.68;88.38
77450;BME280;66536;53.150;18.172;2023-12-29T01:22:53;100686.23;;;4.66;88.42
77450;BME280;66536;53.150;18.172;2023-12-29T01:25:29;100679.05;;;4.65;88.43
77450;BME280;66536;53.150;18.172;2023-12-29T01:27:56;100678.20;;;4.63;88.51
77450;BME280;66536;53.150;18.172;2023-12-29T01:30:39;100675.05;;;4.61;88.57
77450;BME280;66536;53.150;18.172;2023-12-29T01:33:06;100678.66;;;4.56;88.70
77450;BME280;66536;53.150;18.172;2023-12-29T01:35:35;100681.69;;;4.52;88.69
77450;BME280;66536;53.150;18.172;2023-12-29T01:38:03;100677.44;;;4.50;89.00
77450;BME280;66536;53.150;18.172;2023-12-29T01:40:32;100670.98;;;4.49;88.95
77450;BME280;66536;53.150;18.172;2023-12-29T01:43:07;100668.79;;;4.48;89.00
77450;BME280;66536;53.150;18.172;2023-12-29T01:45:34;100668.22;;;4.47;89.07
77450;BME280;66536;53.150;18.172;2023-12-29T01:48:07;100664.16;;;4.45;89.03
77450;BME280;66536;53.150;18.172;2023-12-29T01:50:35;100668.79;;;4.42;89.15
77450;BME280;66536;53.150;18.172;2023-12-29T01:53:03;100669.30;;;4.40;89.22
77450;BME280;66536;53.150;18.172;2023-12-29T01:55:31;100668.18;;;4.38;89.20
77450;BME280;66536;53.150;18.172;2023-12-29T01:57:58;100661.86;;;4.35;89.43
77450;BME280;66536;53.150;18.172;2023-12-29T02:00:25;100656.59;;;4.33;89.33
77450;BME280;66536;53.150;18.172;2023-12-29T02:02:52;100652.77;;;4.33;89.59
77450;BME280;66536;53.150;18.172;2023-12-29T02:05:20;100645.69;;;4.32;89.44
77450;BME280;66536;53.150;18.172;2023-12-29T02:07:51;100645.20;;;4.31;89.51
77450;BME280;66536;53.150;18.172;2023-12-29T02:10:19;100641.79;;;4.30;89.57
77450;BME280;66536;53.150;18.172;2023-12-29T02:12:47;100644.19;;;4.28;89.48
77450;BME280;66536;53.150;18.172;2023-12-29T02:15:15;100633.89;;;4.26;89.58
77450;BME280;66536;53.150;18.172;2023-12-29T02:17:47;100631.92;;;4.24;89.66
77450;BME280;66536;53.150;18.172;2023-12-29T02:20:17;100622.64;;;4.19;89.92
77450;BME280;66536;53.150;18.172;2023-12-29T02:22:43;100623.02;;;4.16;89.80
77450;BME280;66536;53.150;18.172;2023-12-29T02:25:10;100614.25;;;4.12;89.80
77450;BME280;66536;53.150;18.172;2023-12-29T02:27:50;100607.22;;;4.07;89.88
77450;BME280;66536;53.150;18.172;2023-12-29T02:30:25;100600.11;;;4.03;89.99
77450;BME280;66536;53.150;18.172;2023-12-29T02:32:55;100600.83;;;4.00;90.18
77450;BME280;66536;53.150;18.172;2023-12-29T02:35:28;100607.58;;;3.98;90.29
77450;BME280;66536;53.150;18.172;2023-12-29T02:37:56;100602.11;;;3.94;90.30
77450;BME280;66536;53.150;18.172;2023-12-29T02:40:25;100601.03;;;3.92;90.42
77450;BME280;66536;53.150;18.172;2023-12-29T02:42:52;100600.45;;;3.88;90.41
77450;BME280;66536;53.150;18.172;2023-12-29T02:45:18;100602.98;;;3.85;90.65
77450;BME280;66536;53.150;18.172;2023-12-29T02:47:45;100597.30;;;3.82;90.71
77450;BME280;66536;53.150;18.172;2023-12-29T02:50:11;100597.61;;;3.79;90.76
77450;BME280;66536;53.150;18.172;2023-12-29T02:52:37;100592.00;;;3.78;90.81
77450;BME280;66536;53.150;18.172;2023-12-29T02:55:04;100590.05;;;3.77;90.99
77450;BME280;66536;53.150;18.172;2023-12-29T02:57:30;100583.35;;;3.77;91.17
77450;BME280;66536;53.150;18.172;2023-12-29T02:59:58;100577.50;;;3.76;90.97
77450;BME280;66536;53.150;18.172;2023-12-29T03:02:25;100577.10;;;3.75;91.18
77450;BME280;66536;53.150;18.172;2023-12-29T03:04:51;100578.21;;;3.76;91.40
77450;BME280;66536;53.150;18.172;2023-12-29T03:07:17;100567.14;;;3.76;91.18
77450;BME280;66536;53.150;18.172;2023-12-29T03:09:46;100557.86;;;3.76;91.33
77450;BME280;66536;53.150;18.172;2023-12-29T03:12:12;100550.36;;;3.78;91.42
77450;BME280;66536;53.150;18.172;2023-12-29T03:14:39;100553.77;;;3.78;91.47
77450;BME280;66536;53.150;18.172;2023-12-29T03:17:05;100554.46;;;3.79;91.41
77450;BME280;66536;53.150;18.172;2023-12-29T03:19:31;100556.30;;;3.81;91.49
77450;BME280;66536;53.150;18.172;2023-12-29T03:21:58;100552.55;;;3.83;91.50
77450;BME280;66536;53.150;18.172;2023-12-29T03:24:24;100555.43;;;3.84;91.50
77450;BME280;66536;53.150;18.172;2023-12-29T03:26:50;100555.75;;;3.86;91.57
77450;BME280;66536;53.150;18.172;2023-12-29T03:29:16;100559.77;;;3.89;91.50
77450;BME280;66536;53.150;18.172;2023-12-29T03:31:42;100553.95;;;3.90;91.62
77450;BME280;66536;53.150;18.172;2023-12-29T03:34:08;100553.18;;;3.96;91.92
77450;BME280;66536;53.150;18.172;2023-12-29T03:36:35;100549.29;;;4.02;91.81
77450;BME280;66536;53.150;18.172;2023-12-29T03:39:01;100548.39;;;4.06;91.68
77450;BME280;66536;53.150;18.172;2023-12-29T03:41:28;100546.44;;;4.10;91.58
77450;BME280;66536;53.150;18.172;2023-12-29T03:43:56;100544.41;;;4.15;91.81
77450;BME280;66536;53.150;18.172;2023-12-29T03:46:23;100546.69;;;4.21;91.84
77450;BME280;66536;53.150;18.172;2023-12-29T03:48:50;100544.00;;;4.26;91.76
77450;BME280;66536;53.150;18.172;2023-12-29T03:51:16;100541.44;;;4.32;91.79
77450;BME280;66536;53.150;18.172;2023-12-29T03:53:43;100536.89;;;4.38;91.64
77450;BME280;66536;53.150;18.172;2023-12-29T03:56:18;100540.31;;;4.39;91.55
77450;BME280;66536;53.150;18.172;2023-12-29T03:58:45;100530.86;;;4.40;91.45
77450;BME280;66536;53.150;18.172;2023-12-29T04:01:13;100527.59;;;4.40;91.56
77450;BME280;66536;53.150;18.172;2023-12-29T04:03:40;100518.79;;;4.41;91.49
77450;BME280;66536;53.150;18.172;2023-12-29T04:06:07;100518.41;;;4.43;91.56
77450;BME280;66536;53.150;18.172;2023-12-29T04:08:34;100511.28;;;4.47;91.73
77450;BME280;66536;53.150;18.172;2023-12-29T04:11:01;100513.39;;;4.51;91.32
77450;BME280;66536;53.150;18.172;2023-12-29T04:13:28;100511.02;;;4.52;91.38
77450;BME280;66536;53.150;18.172;2023-12-29T04:15:54;100506.69;;;4.53;91.29
77450;BME280;66536;53.150;18.172;2023-12-29T04:18:22;100499.09;;;4.53;91.24
77450;BME280;66536;53.150;18.172;2023-12-29T04:20:48;100501.86;;;4.56;91.34
77450;BME280;66536;53.150;18.172;2023-12-29T04:23:15;100500.20;;;4.58;91.25
77450;BME280;66536;53.150;18.172;2023-12-29T04:25:41;100497.27;;;4.60;91.13
77450;BME280;66536;53.150;18.172;2023-12-29T04:28:08;100501.84;;;4.62;91.06
77450;BME280;66536;53.150;18.172;2023-12-29T04:30:35;100500.34;;;4.62;91.00
77450;BME280;66536;53.150;18.172;2023-12-29T04:33:01;100491.67;;;4.63;91.01
77450;BME280;66536;53.150;18.172;2023-12-29T04:35:27;100494.04;;;4.64;91.02
77450;BME280;66536;53.150;18.172;2023-12-29T04:37:53;100489.42;;;4.65;90.86
77450;BME280;66536;53.150;18.172;2023-12-29T04:40:19;100491.48;;;4.65;90.75
77450;BME280;66536;53.150;18.172;2023-12-29T04:42:45;100488.32;;;4.64;90.83
77450;BME280;66536;53.150;18.172;2023-12-29T04:45:11;100485.02;;;4.63;90.83
77450;BME280;66536;53.150;18.172;2023-12-29T04:47:38;100486.15;;;4.63;91.01
77450;BME280;66536;53.150;18.172;2023-12-29T04:50:04;100481.08;;;4.63;90.72
77450;BME280;66536;53.150;18.172;2023-12-29T04:52:32;100472.09;;;4.63;90.75
77450;BME280;66536;53.150;18.172;2023-12-29T04:54:58;100466.02;;;4.64;90.82
77450;BME280;66536;53.150;18.172;2023-12-29T04:57:24;100458.39;;;4.67;90.72
77450;BME280;66536;53.150;18.172;2023-12-29T04:59:50;100452.45;;;4.68;90.80
77450;BME280;66536;53.150;18.172;2023-12-29T05:02:16;100451.86;;;4.69;90.66
77450;BME280;66536;53.150;18.172;2023-12-29T05:04:42;100450.08;;;4.70;90.61
77450;BME280;66536;53.150;18.172;2023-12-29T05:07:09;100448.05;;;4.69;90.64
77450;BME280;66536;53.150;18.172;2023-12-29T05:09:35;100447.64;;;4.68;90.62
77450;BME280;66536;53.150;18.172;2023-12-29T05:12:01;100439.23;;;4.67;90.64
77450;BME280;66536;53.150;18.172;2023-12-29T05:14:28;100434.72;;;4.66;90.52
77450;BME280;66536;53.150;18.172;2023-12-29T05:16:54;100438.41;;;4.65;90.61
77450;BME280;66536;53.150;18.172;2023-12-29T05:19:20;100441.20;;;4.65;90.63
77450;BME280;66536;53.150;18.172;2023-12-29T05:21:46;100441.13;;;4.65;90.69
77450;BME280;66536;53.150;18.172;2023-12-29T05:24:12;100439.09;;;4.65;90.70
77450;BME280;66536;53.150;18.172;2023-12-29T05:26:38;100443.61;;;4.65;90.73
77450;BME280;66536;53.150;18.172;2023-12-29T05:29:04;100438.08;;;4.64;90.49
77450;BME280;66536;53.150;18.172;2023-12-29T05:31:30;100440.90;;;4.63;90.59
77450;BME280;66536;53.150;18.172;2023-12-29T05:33:56;100440.44;;;4.64;90.65
77450;BME280;66536;53.150;18.172;2023-12-29T05:36:23;100436.19;;;4.65;90.58
77450;BME280;66536;53.150;18.172;2023-12-29T05:38:49;100433.23;;;4.69;90.61
77450;BME280;66536;53.150;18.172;2023-12-29T05:41:15;100437.02;;;4.71;90.41
77450;BME280;66536;53.150;18.172;2023-12-29T05:43:41;100439.16;;;4.72;90.40
77450;BME280;66536;53.150;18.172;2023-12-29T05:46:10;100440.38;;;4.72;90.39
77450;BME280;66536;53.150;18.172;2023-12-29T05:48:39;100430.91;;;4.73;90.45
77450;BME280;66536;53.150;18.172;2023-12-29T05:51:08;100419.73;;;4.73;90.41
77450;BME280;66536;53.150;18.172;2023-12-29T05:53:35;100412.31;;;4.72;90.36
77450;BME280;66536;53.150;18.172;2023-12-29T05:56:01;100411.25;;;4.74;90.36
77450;BME280;66536;53.150;18.172;2023-12-29T05:58:27;100411.83;;;4.75;90.33
77450;BME280;66536;53.150;18.172;2023-12-29T06:00:55;100404.81;;;4.75;90.43
77450;BME280;66536;53.150;18.172;2023-12-29T06:03:21;100397.29;;;4.76;90.40
77450;BME280;66536;53.150;18.172;2023-12-29T06:05:48;100398.89;;;4.78;90.35
77450;BME280;66536;53.150;18.172;2023-12-29T06:08:14;100391.84;;;4.79;90.30
77450;BME280;66536;53.150;18.172;2023-12-29T06:10:40;100390.84;;;4.81;90.27
77450;BME280;66536;53.150;18.172;2023-12-29T06:13:06;100401.52;;;4.80;90.11
77450;BME280;66536;53.150;18.172;2023-12-29T06:15:33;100405.23;;;4.77;90.09
77450;BME280;66536;53.150;18.172;2023-12-29T06:17:59;100401.84;;;4.74;90.12
77450;BME280;66536;53.150;18.172;2023-12-29T06:20:25;100399.84;;;4.72;90.31
77450;BME280;66536;53.150;18.172;2023-12-29T06:22:51;100402.52;;;4.73;90.33
77450;BME280;66536;53.150;18.172;2023-12-29T06:25:17;100400.82;;;4.74;90.28
77450;BME280;66536;53.150;18.172;2023-12-29T06:27:43;100399.08;;;4.75;90.33
77450;BME280;66536;53.150;18.172;2023-12-29T06:30:10;100402.33;;;4.76;90.28
77450;BME280;66536;53.150;18.172;2023-12-29T06:32:37;100402.23;;;4.77;90.13
77450;BME280;66536;53.150;18.172;2023-12-29T06:35:04;100402.48;;;4.79;90.15
77450;BME280;66536;53.150;18.172;2023-12-29T06:37:31;100406.72;;;4.82;90.32
77450;BME280;66536;53.150;18.172;2023-12-29T06:39:57;100407.25;;;4.86;90.18
77450;BME280;66536;53.150;18.172;2023-12-29T06:42:23;100404.92;;;4.92;90.03
77450;BME280;66536;53.150;18.172;2023-12-29T06:44:49;100396.48;;;5.00;90.00
77450;BME280;66536;53.150;18.172;2023-12-29T06:47:18;100394.16;;;5.09;89.72
77450;BME280;66536;53.150;18.172;2023-12-29T06:49:44;100392.14;;;5.18;89.65
77450;BME280;66536;53.150;18.172;2023-12-29T06:52:10;100383.36;;;5.27;89.44
77450;BME280;66536;53.150;18.172;2023-12-29T06:54:37;100383.41;;;5.36;89.38
77450;BME280;66536;53.150;18.172;2023-12-29T06:57:03;100379.23;;;5.43;89.06
77450;BME280;66536;53.150;18.172;2023-12-29T06:59:29;100383.62;;;5.51;88.68
77450;BME280;66536;53.150;18.172;2023-12-29T07:01:57;100381.24;;;5.58;88.54
77450;BME280;66536;53.150;18.172;2023-12-29T07:04:23;100384.90;;;5.63;88.37
77450;BME280;66536;53.150;18.172;2023-12-29T07:06:49;100384.33;;;5.68;88.15
77450;BME280;66536;53.150;18.172;2023-12-29T07:09:15;100382.64;;;5.73;88.19
77450;BME280;66536;53.150;18.172;2023-12-29T07:11:41;100376.38;;;5.78;88.01
77450;BME280;66536;53.150;18.172;2023-12-29T07:14:07;100382.13;;;5.83;87.99
77450;BME280;66536;53.150;18.172;2023-12-29T07:16:33;100387.86;;;5.87;87.72
77450;BME280;66536;53.150;18.172;2023-12-29T07:18:59;100397.86;;;5.90;87.65
77450;BME280;66536;53.150;18.172;2023-12-29T07:21:25;100391.92;;;5.94;87.34
77450;BME280;66536;53.150;18.172;2023-12-29T07:23:51;100392.92;;;5.98;87.28
77450;BME280;66536;53.150;18.172;2023-12-29T07:26:17;100392.44;;;6.02;87.16
77450;BME280;66536;53.150;18.172;2023-12-29T07:28:43;100392.67;;;6.06;86.97
77450;BME280;66536;53.150;18.172;2023-12-29T07:31:09;100383.83;;;6.10;86.88
77450;BME280;66536;53.150;18.172;2023-12-29T07:33:35;100392.75;;;6.14;86.63
77450;BME280;66536;53.150;18.172;2023-12-29T07:36:02;100394.73;;;6.18;86.56
77450;BME280;66536;53.150;18.172;2023-12-29T07:38:28;100399.92;;;6.21;86.59
77450;BME280;66536;53.150;18.172;2023-12-29T07:40:54;100395.76;;;6.25;86.24
77450;BME280;66536;53.150;18.172;2023-12-29T07:43:20;100384.28;;;6.28;86.29
77450;BME280;66536;53.150;18.172;2023-12-29T07:45:46;100384.46;;;6.30;86.19
77450;BME280;66536;53.150;18.172;2023-12-29T07:48:12;100380.61;;;6.32;86.18
77450;BME280;66536;53.150;18.172;2023-12-29T07:50:38;100381.77;;;6.35;86.10
77450;BME280;66536;53.150;18.172;2023-12-29T07:53:04;100379.00;;;6.38;86.01
77450;BME280;66536;53.150;18.172;2023-12-29T07:55:31;100383.25;;;6.41;85.95
77450;BME280;66536;53.150;18.172;2023-12-29T07:57:58;100384.66;;;6.44;85.69
77450;BME280;66536;53.150;18.172;2023-12-29T08:00:24;100382.02;;;6.47;85.55
77450;BME280;66536;53.150;18.172;2023-12-29T08:02:50;100379.53;;;6.52;85.43
77450;BME280;66536;53.150;18.172;2023-12-29T08:05:18;100378.52;;;6.57;85.08
77450;BME280;66536;53.150;18.172;2023-12-29T08:07:44;100373.00;;;6.67;85.07
77450;BME280;66536;53.150;18.172;2023-12-29T08:10:12;100376.75;;;6.78;84.85
77450;BME280;66536;53.150;18.172;2023-12-29T08:12:41;100389.38;;;6.88;84.80
77450;BME280;66536;53.150;18.172;2023-12-29T08:15:07;100390.09;;;6.98;84.48
77450;BME280;66536;53.150;18.172;2023-12-29T08:17:33;100387.69;;;7.04;84.20
77450;BME280;66536;53.150;18.172;2023-12-29T08:19:59;100387.50;;;7.10;84.00
77450;BME280;66536;53.150;18.172;2023-12-29T08:22:29;100391.08;;;7.13;83.88
77450;BME280;66536;53.150;18.172;2023-12-29T08:24:55;100384.83;;;7.17;83.96
77450;BME280;66536;53.150;18.172;2023-12-29T08:27:24;100387.14;;;7.22;83.46
77450;BME280;66536;53.150;18.172;2023-12-29T08:29:52;100386.33;;;7.26;83.50
77450;BME280;66536;53.150;18.172;2023-12-29T08:32:20;100377.97;;;7.32;83.69
77450;BME280;66536;53.150;18.172;2023-12-29T08:34:46;100375.61;;;7.40;83.59
77450;BME280;66536;53.150;18.172;2023-12-29T08:37:13;100374.23;;;7.51;83.42
77450;BME280;66536;53.150;18.172;2023-12-29T08:39:46;100373.15;;;7.62;83.01
77450;BME280;66536;53.150;18.172;2023-12-29T08:42:14;100381.97;;;7.69;82.50
77450;BME280;66536;53.150;18.172;2023-12-29T08:44:40;100377.54;;;7.71;82.20
77450;BME280;66536;53.150;18.172;2023-12-29T08:47:06;100379.04;;;7.73;82.24
77450;BME280;66536;53.150;18.172;2023-12-29T08:49:36;100377.30;;;7.77;82.45
77450;BME280;66536;53.150;18.172;2023-12-29T08:52:03;100377.48;;;7.84;82.48
77450;BME280;66536;53.150;18.172;2023-12-29T08:54:29;100383.87;;;7.92;82.09
77450;BME280;66536;53.150;18.172;2023-12-29T08:56:55;100384.16;;;7.94;82.18
77450;BME280;66536;53.150;18.172;2023-12-29T08:59:21;100387.88;;;7.92;82.16
77450;BME280;66536;53.150;18.172;2023-12-29T09:01:47;100382.20;;;7.89;82.24
77450;BME280;66536;53.150;18.172;2023-12-29T09:04:13;100377.66;;;7.91;82.00
77450;BME280;66536;53.150;18.172;2023-12-29T09:06:39;100372.27;;;7.95;81.68
77450;BME280;66536;53.150;18.172;2023-12-29T09:09:05;100372.23;;;8.02;81.65
77450;BME280;66536;53.150;18.172;2023-12-29T09:11:31;100374.19;;;8.08;81.24
77450;BME280;66536;53.150;18.172;2023-12-29T09:13:57;100372.96;;;8.12;81.33
77450;BME280;66536;53.150;18.172;2023-12-29T09:16:23;100376.84;;;8.17;81.20
77450;BME280;66536;53.150;18.172;2023-12-29T09:18:50;100376.77;;;8.22;81.81
77450;BME280;66536;53.150;18.172;2023-12-29T09:21:16;100377.59;;;8.25;81.51
77450;BME280;66536;53.150;18.172;2023-12-29T09:23:42;100373.70;;;8.26;81.40
77450;BME280;66536;53.150;18.172;2023-12-29T09:26:08;100368.03;;;8.31;81.54
77450;BME280;66536;53.150;18.172;2023-12-29T09:28:37;100354.31;;;8.39;80.77
77450;BME280;66536;53.150;18.172;2023-12-29T09:31:03;100355.16;;;8.43;81.15
77450;BME280;66536;53.150;18.172;2023-12-29T09:33:30;100350.94;;;8.47;81.43
77450;BME280;66536;53.150;18.172;2023-12-29T09:35:59;100346.20;;;8.48;79.99
77450;BME280;66536;53.150;18.172;2023-12-29T09:38:25;100338.83;;;8.49;79.49
77450;BME280;66536;53.150;18.172;2023-12-29T09:40:52;100335.61;;;8.51;80.41
77450;BME280;66536;53.150;18.172;2023-12-29T09:43:19;100325.81;;;8.52;79.51
77450;BME280;66536;53.150;18.172;2023-12-29T09:45:45;100327.59;;;8.56;79.49
77450;BME280;66536;53.150;18.172;2023-12-29T09:48:15;100321.87;;;8.59;79.33
77450;BME280;66536;53.150;18.172;2023-12-29T09:50:43;100321.95;;;8.62;79.24
77450;BME280;66536;53.150;18.172;2023-12-29T09:53:10;100338.57;;;8.64;78.88
77450;BME280;66536;53.150;18.172;2023-12-29T09:55:40;100346.85;;;8.67;79.35
77450;BME280;66536;53.150;18.172;2023-12-29T09:58:08;100341.01;;;8.71;77.80
77450;BME280;66536;53.150;18.172;2023-12-29T10:00:34;100340.80;;;8.76;78.50
77450;BME280;66536;53.150;18.172;2023-12-29T10:03:01;100344.88;;;8.82;78.13
77450;BME280;66536;53.150;18.172;2023-12-29T10:05:27;100339.14;;;8.87;76.74
77450;BME280;66536;53.150;18.172;2023-12-29T10:08:02;100342.25;;;8.94;76.28
77450;BME280;66536;53.150;18.172;2023-12-29T10:10:30;100338.02;;;9.02;77.05
77450;BME280;66536;53.150;18.172;2023-12-29T10:12:57;100340.10;;;9.10;76.72
77450;BME280;66536;53.150;18.172;2023-12-29T10:15:35;100322.96;;;9.13;75.52
77450;BME280;66536;53.150;18.172;2023-12-29T10:18:14;100318.33;;;9.13;75.19
77450;BME280;66536;53.150;18.172;2023-12-29T10:21:00;100320.11;;;9.12;75.79
77450;BME280;66536;53.150;18.172;2023-12-29T10:23:40;100329.80;;;9.12;76.14
77450;BME280;66536;53.150;18.172;2023-12-29T10:26:11;100317.79;;;9.14;75.60
77450;BME280;66536;53.150;18.172;2023-12-29T10:28:37;100330.86;;;9.16;75.30
77450;BME280;66536;53.150;18.172;2023-12-29T10:31:04;100332.68;;;9.17;75.52
77450;BME280;66536;53.150;18.172;2023-12-29T10:33:30;100333.99;;;9.17;75.64
77450;BME280;66536;53.150;18.172;2023-12-29T10:36:00;100330.81;;;9.18;75.43
77450;BME280;66536;53.150;18.172;2023-12-29T10:38:29;100328.46;;;9.19;75.19
77450;BME280;66536;53.150;18.172;2023-12-29T10:41:11;100335.34;;;9.20;75.06
77450;BME280;66536;53.150;18.172;2023-12-29T10:43:38;100331.89;;;9.26;74.70
77450;BME280;66536;53.150;18.172;2023-12-29T10:46:06;100322.08;;;9.34;74.54
77450;BME280;66536;53.150;18.172;2023-12-29T10:48:35;100313.20;;;9.43;73.91
77450;BME280;66536;53.150;18.172;2023-12-29T10:51:03;100323.48;;;9.52;74.04
77450;BME280;66536;53.150;18.172;2023-12-29T10:53:31;100319.70;;;9.61;73.73
77450;BME280;66536;53.150;18.172;2023-12-29T10:55:58;100326.83;;;9.72;73.57
77450;BME280;66536;53.150;18.172;2023-12-29T10:58:26;100327.11;;;9.82;72.96
77450;BME280;66536;53.150;18.172;2023-12-29T11:00:56;100322.36;;;9.90;73.31
77450;BME280;66536;53.150;18.172;2023-12-29T11:03:22;100319.44;;;10.05;72.25
77450;BME280;66536;53.150;18.172;2023-12-29T11:05:58;100315.81;;;10.26;72.34
77450;BME280;66536;53.150;18.172;2023-12-29T11:08:26;100308.05;;;10.55;70.80
77450;BME280;66536;53.150;18.172;2023-12-29T11:10:54;100305.27;;;10.74;70.58
77450;BME280;66536;53.150;18.172;2023-12-29T11:13:21;100304.07;;;10.80;70.05
77450;BME280;66536;53.150;18.172;2023-12-29T11:15:48;100298.93;;;10.88;69.75
77450;BME280;66536;53.150;18.172;2023-12-29T11:18:15;100301.55;;;10.98;69.38
77450;BME280;66536;53.150;18.172;2023-12-29T11:20:44;100304.79;;;11.01;69.35
77450;BME280;66536;53.150;18.172;2023-12-29T11:23:11;100311.36;;;11.14;69.95
77450;BME280;66536;53.150;18.172;2023-12-29T11:25:39;100313.12;;;11.24;69.52
77450;BME280;66536;53.150;18.172;2023-12-29T11:28:10;100314.28;;;11.25;68.37
77450;BME280;66536;53.150;18.172;2023-12-29T11:30:38;100316.63;;;11.17;68.79
77450;BME280;66536;53.150;18.172;2023-12-29T11:33:16;100312.59;;;11.08;69.19
77450;BME280;66536;53.150;18.172;2023-12-29T11:35:51;100305.27;;;11.01;69.84
77450;BME280;66536;53.150;18.172;2023-12-29T11:38:39;100302.66;;;10.95;69.88
77450;BME280;66536;53.150;18.172;2023-12-29T11:41:16;100300.20;;;10.88;69.72
77450;BME280;66536;53.150;18.172;2023-12-29T11:43:56;100301.48;;;10.81;69.89
77450;BME280;66536;53.150;18.172;2023-12-29T11:46:42;100299.98;;;10.69;69.92
77450;BME280;66536;53.150;18.172;2023-12-29T11:49:11;100300.09;;;10.55;69.93
77450;BME280;66536;53.150;18.172;2023-12-29T11:51:42;100308.24;;;10.44;70.31
77450;BME280;66536;53.150;18.172;2023-12-29T11:54:10;100303.55;;;10.36;70.27
77450;BME280;66536;53.150;18.172;2023-12-29T11:56:38;100307.08;;;10.37;70.58
77450;BME280;66536;53.150;18.172;2023-12-29T11:59:15;100299.25;;;10.43;70.34
77450;BME280;66536;53.150;18.172;2023-12-29T12:01:48;100295.02;;;10.49;70.64
77450;BME280;66536;53.150;18.172;2023-12-29T12:07:03;100291.68;;;10.51;69.95
77450;BME280;66536;53.150;18.172;2023-12-29T12:09:30;100299.21;;;10.56;70.49
77450;BME280;66536;53.150;18.172;2023-12-29T12:11:56;100293.60;;;10.56;69.93
77450;BME280;66536;53.150;18.172;2023-12-29T12:17:08;100314.44;;;10.40;70.40
77450;BME280;66536;53.150;18.172;2023-12-29T12:19:35;100295.85;;;10.33;70.29
77450;BME280;66536;53.150;18.172;2023-12-29T12:22:02;100298.77;;;10.28;69.97
77450;BME280;66536;53.150;18.172;2023-12-29T12:24:28;100295.57;;;10.25;70.21
77450;BME280;66536;53.150;18.172;2023-12-29T12:26:56;100301.14;;;10.20;70.01
77450;BME280;66536;53.150;18.172;2023-12-29T12:29:23;100295.86;;;10.14;70.38
77450;BME280;66536;53.150;18.172;2023-12-29T12:31:55;100303.33;;;10.10;70.03
77450;BME280;66536;53.150;18.172;2023-12-29T12:34:23;100301.91;;;10.07;70.55
77450;BME280;66536;53.150;18.172;2023-12-29T12:36:51;100323.06;;;10.02;71.18
77450;BME280;66536;53.150;18.172;2023-12-29T12:39:18;100327.86;;;9.99;71.53
77450;BME280;66536;53.150;18.172;2023-12-29T12:41:45;100314.52;;;9.95;71.47
77450;BME280;66536;53.150;18.172;2023-12-29T12:44:13;100315.89;;;9.93;71.69
77450;BME280;66536;53.150;18.172;2023-12-29T12:46:49;100317.98;;;9.90;71.96
77450;BME280;66536;53.150;18.172;2023-12-29T12:49:18;100318.45;;;9.87;71.99
77450;BME280;66536;53.150;18.172;2023-12-29T12:51:45;100313.21;;;9.84;71.95
77450;BME280;66536;53.150;18.172;2023-12-29T12:54:13;100307.48;;;9.83;71.90
77450;BME280;66536;53.150;18.172;2023-12-29T12:56:44;100314.61;;;9.82;71.89